TISX/STX METAR and TAF weather

Enter ICAO airport designator
Station Type Date Time Source
TISX METAR 2018/12/10 08:53 UTC NOAA

TISX 100853Z AUTO 06006KT 10SM FEW032 25/21 A3005 RMK AO2 SLP174 T02500211 55001


Station Type Date Time Source
TISX Decoded METAR 2018/12/10 08:53 UTC NOAA

Christiansted, Henry E. Rohlsen Airport, Virgin Islands (TISX) 17-42N 064-48W 17M
Dec 10, 2018 - 03:53 AM EST / 2018.12.10 0853 UTC
Wind: from the ENE (060 degrees) at 7 MPH (6 KT):0
Visibility: 10 mile(s):0
Sky conditions: mostly clear
Temperature: 77.0 F (25.0 C)
Dew Point: 70.0 F (21.1 C)
Relative Humidity: 78%
Pressure (altimeter): 30.05 in. Hg (1017 hPa)
Pressure tendency: 0.00 inches (0.1 hPa) lower than three hours ago
ob: TISX 100853Z AUTO 06006KT 10SM FEW032 25/21 A3005 RMK AO2 SLP174 T02500211 55001
cycle: 9

Station Type Date Time Source
TISX TAF 2018/12/10 06:27 UTC NOAA

TAF TISX 100521Z 1006/1106 08010KT P6SM VCSH FEW030
FM101100 08009KT P6SM FEW030
FM101400 11016G22KT P6SM SCT030
FM102200 07007KT P6SM FEW030


Example: see airport list